createdAt,value
2023-03-15T00:05:34.410Z,94413.00
2023-03-15T00:06:34.641Z,94413.00
2023-03-15T00:08:55.037Z,94424.00
2023-03-15T00:09:55.550Z,94428.00
2023-03-15T00:12:14.614Z,94432.00
2023-03-15T00:14:14.453Z,94438.00
2023-03-15T00:15:14.588Z,94438.00
2023-03-15T00:16:14.372Z,94436.00
2023-03-15T00:17:14.651Z,94432.00
2023-03-15T00:18:14.581Z,94432.00
2023-03-15T00:19:14.340Z,94424.00
2023-03-15T00:20:14.320Z,94420.00
2023-03-15T00:21:14.317Z,94414.00
2023-03-15T00:22:14.320Z,94413.00
2023-03-15T00:23:14.325Z,94418.00
2023-03-15T00:24:14.305Z,94416.00
2023-03-15T00:25:14.277Z,94414.00
2023-03-15T00:26:14.291Z,94411.00
2023-03-15T00:27:14.259Z,94413.00
2023-03-15T00:28:14.281Z,94409.00
2023-03-15T00:29:14.251Z,94405.00
2023-03-15T00:30:14.248Z,94403.00
2023-03-15T00:32:35.321Z,94399.00
2023-03-15T00:35:54.148Z,94407.00
2023-03-15T00:36:54.253Z,94409.00
2023-03-15T00:37:53.991Z,94409.00
2023-03-15T00:38:54.060Z,94409.00
2023-03-15T00:39:53.994Z,94409.00
2023-03-15T01:35:46.318Z,94375.00
2023-03-15T02:12:41.962Z,94346.00
2023-03-15T02:13:42.447Z,94346.00
2023-03-15T02:16:02.387Z,94350.00
2023-03-15T02:17:02.146Z,94352.00
2023-03-15T02:19:22.108Z,94358.00
2023-03-15T02:20:38.126Z,94360.00
2023-03-15T02:21:21.920Z,94364.00
2023-03-15T02:22:22.045Z,94366.00
2023-03-15T02:23:21.899Z,94369.00
2023-03-15T02:24:21.872Z,94373.00
2023-03-15T02:25:21.841Z,94377.00
2023-03-15T02:26:21.849Z,94381.00
2023-03-15T02:27:21.869Z,94387.00
2023-03-15T02:28:21.792Z,94389.00
2023-03-15T02:30:42.113Z,94405.00
2023-03-15T02:31:42.060Z,94409.00
2023-03-15T02:32:41.667Z,94416.00
2023-03-15T02:33:41.763Z,94420.00
2023-03-15T02:34:41.670Z,94424.00
2023-03-15T02:35:41.545Z,94424.00
2023-03-15T02:36:57.644Z,94428.00
2023-03-15T02:38:01.689Z,94432.00
2023-03-15T02:39:01.458Z,94434.00
2023-03-15T02:40:01.438Z,94436.00
2023-03-15T03:19:21.260Z,94528.00
